Terminal Aerodrome Forecast
Issued by NWS Chicago, IL

Home | Current Version | Previous Version | Text Only | Print | Product List | Glossary Off
Versions: 1 2 3 4 5 6 7 8 9 10 11 12 13 14 15 16 17 18 19 20 21 22 23 24

000
FTUS43 KLOT 160529
TAFRFD
TAF
KRFD 160529Z 1606/1706 29012KT 2SM -SN SCT015 OVC025
      TEMPO 1606/1609 3/4SM -SN BR SCT009 OVC015
     FM160900 31010KT 3SM -SN SCT015 OVC025
     FM161300 32012KT 6SM -SN BKN025
     FM161700 33010KT P6SM BKN035
     FM170000 32007KT P6SM SCT040=

USA.gov is the U.S. government's official web portal to all federal, state and local government web resources and services.